Flugplatz Segelflug Mittelfischach (UL)

Hier findest Du alle Informationen zum Flugplatz Segelflug Mittelfischach (UL).

Informationen für Piloten zum Flugplatz Segelflug Mittelfischach

Hier findest Du alle relevanten Informationen, die Du als Pilot benötigst, um Segelflug Mittelfischach anzufliegen.

Flugplatz: Segelflug Mittelfischach ICAO-Code: UL Flugplatz
Frequenz Turm: 123.425 Mhz GAFOR Gebiet: 55
Frequenz Ground: 123.425 Mhz Mogas: nein
Platzrunde: NO 2000 ft Landegebühr: -
Platzhöhe: Sunrise: 03:15 Uhr UTC
Pisten: 01/19 - 600 m x 15 m, GRAS Sunset: 19:31 Uhr UTC

Mitglieder, die in Segelflug Mittelfischach fliegen

Flugwetter am Flugplatz Segelflug Mittelfischach

Die METAR Information stammen aus EDDS (61.03 km entfernt).

METAR Code:
2024/04/16 13:50
EDDS 161350Z AUTO 25020G33KT 220V280 9999 SCT041 11/01 Q1006 TEMPO SHRA

Flugschulen am Flugplatz Segelflug Mittelfischach

Am Flugplatz Segelflug Mittelfischach gibt es leider keine Flugschule.

Benachbarte Flugplätze und Flugschulen

Es gibt 25 weitere Flugplätze in einem Umkreis von 50 km um den Flugplatz Segelflug Mittelfischach.

Jetzt anmelden

Passwort vergessen

Umfrage Archiv

Wie häufig haltet Ihr die Halbkreisflugregel ein?

Eher häufig!
36.1 %
Immer!
30.5 %
Hin und wieder!
16.9 %
Nie!
9.4 %
Eher selten!
7.1 %
Stimmen: 266 | Diskussion
Anzeige: Roland Aircraft
Statistik Alle Mitglieder

Aktuell sind 24 Besucher online, davon 1 Mitglied und 23 Gäste.


Mitglieder online:
b3nn0 

Anzeige: EasyVFR